createdAt,value
2022-12-11T00:01:13.797Z,100.00
2022-12-11T00:03:43.212Z,100.00
2022-12-11T00:06:12.991Z,100.00
2022-12-11T00:08:43.150Z,100.00
2022-12-11T00:11:12.839Z,100.00
2022-12-11T00:13:42.548Z,100.00
2022-12-11T00:16:11.314Z,100.00
2022-12-11T00:18:40.316Z,100.00
2022-12-11T00:21:12.042Z,100.00
2022-12-11T00:23:40.649Z,100.00
2022-12-11T00:26:26.043Z,100.00
2022-12-11T00:28:54.846Z,100.00
2022-12-11T00:31:23.642Z,100.00
2022-12-11T00:33:52.830Z,100.00
2022-12-11T00:36:23.349Z,100.00
2022-12-11T00:38:52.019Z,100.00
2022-12-11T00:41:22.183Z,100.00
2022-12-11T00:43:50.775Z,100.00
2022-12-11T00:46:19.599Z,100.00
2022-12-11T00:48:50.139Z,100.00
2022-12-11T00:51:18.919Z,100.00
2022-12-11T00:53:47.657Z,98.42
2022-12-11T00:56:17.248Z,96.14
2022-12-11T00:58:47.320Z,94.62
2022-12-11T01:01:17.920Z,93.44
2022-12-11T01:03:46.663Z,93.43
2022-12-11T01:06:16.606Z,92.64
2022-12-11T01:08:45.440Z,91.59
2022-12-11T01:11:14.027Z,91.40
2022-12-11T01:13:42.705Z,91.59
2022-12-11T01:16:13.802Z,93.43
2022-12-11T01:18:50.849Z,93.42
2022-12-11T01:21:19.585Z,92.65
2022-12-11T01:23:48.364Z,92.55
2022-12-11T01:26:17.179Z,93.34
2022-12-11T01:28:45.939Z,93.94
2022-12-11T01:31:17.366Z,94.65
2022-12-11T01:33:46.022Z,93.31
2022-12-11T01:36:15.707Z,92.67
2022-12-11T01:38:44.680Z,91.45
2022-12-11T01:41:13.404Z,89.07
2022-12-11T01:43:58.193Z,88.37
2022-12-11T01:46:28.548Z,88.53
2022-12-11T01:48:58.531Z,89.67
2022-12-11T01:51:27.244Z,90.08
2022-12-11T01:53:57.662Z,91.08
2022-12-11T01:56:26.310Z,89.80
2022-12-11T01:58:56.832Z,90.05
2022-12-11T02:01:29.645Z,89.10
2022-12-11T02:03:58.333Z,89.50
2022-12-11T02:06:32.781Z,88.52
2022-12-11T02:09:01.916Z,88.01
2022-12-11T02:11:33.860Z,87.49
2022-12-11T02:14:09.016Z,87.12
2022-12-11T02:16:41.735Z,86.90
2022-12-11T02:19:16.588Z,88.07
2022-12-11T02:21:47.103Z,88.51
2022-12-11T02:24:27.846Z,89.59
2022-12-11T02:27:03.942Z,93.26
2022-12-11T02:29:36.578Z,94.21
2022-12-11T02:32:07.672Z,98.11
2022-12-11T02:34:39.002Z,98.55
2022-12-11T02:37:09.332Z,100.00
2022-12-11T02:39:38.410Z,100.00
2022-12-11T02:42:07.130Z,100.00
2022-12-11T02:44:37.154Z,100.00
2022-12-11T02:47:08.395Z,100.00
2022-12-11T02:49:37.049Z,100.00
2022-12-11T02:52:05.954Z,100.00
2022-12-11T02:54:36.387Z,100.00
2022-12-11T02:57:13.919Z,100.00
2022-12-11T02:59:48.780Z,100.00
2022-12-11T03:02:18.089Z,100.00
2022-12-11T03:04:47.231Z,100.00
2022-12-11T03:07:17.568Z,100.00
2022-12-11T03:09:47.325Z,99.50
2022-12-11T03:12:17.247Z,97.27
2022-12-11T03:14:48.622Z,94.83
2022-12-11T03:17:18.351Z,92.42
2022-12-11T03:19:51.800Z,91.04
2022-12-11T03:22:23.208Z,91.14
2022-12-11T03:24:53.711Z,88.70
2022-12-11T03:27:26.793Z,86.31
2022-12-11T03:29:58.956Z,85.97
2022-12-11T03:32:28.650Z,85.24
2022-12-11T03:34:59.026Z,83.90
2022-12-11T03:37:33.536Z,84.12
2022-12-11T03:40:05.717Z,82.51
2022-12-11T03:42:34.428Z,80.91
2022-12-11T03:45:05.143Z,81.37
2022-12-11T03:47:34.854Z,81.17
2022-12-11T03:50:03.426Z,81.75
2022-12-11T03:52:32.800Z,81.15
2022-12-11T03:55:03.313Z,80.24
2022-12-11T03:57:32.886Z,79.73
2022-12-11T04:00:01.998Z,80.85
2022-12-11T04:02:32.672Z,80.78
2022-12-11T04:05:01.356Z,80.05
2022-12-11T04:07:31.498Z,78.24
2022-12-11T04:10:00.530Z,78.34
2022-12-11T04:12:29.132Z,78.26
2022-12-11T04:15:02.797Z,78.74
2022-12-11T04:17:46.853Z,77.80
2022-12-11T04:20:29.148Z,78.23
2022-12-11T04:23:11.709Z,77.47
2022-12-11T04:25:40.387Z,76.30
2022-12-11T04:28:09.029Z,76.55
2022-12-11T04:30:37.681Z,76.16
2022-12-11T04:33:08.043Z,74.21
2022-12-11T04:35:37.532Z,73.93
2022-12-11T04:38:06.180Z,73.13
2022-12-11T04:40:34.948Z,71.81
2022-12-11T04:43:03.599Z,71.95
2022-12-11T04:45:32.216Z,70.98
2022-12-11T04:48:01.329Z,70.94
2022-12-11T04:50:31.355Z,70.80
2022-12-11T04:53:00.283Z,70.96
2022-12-11T04:55:28.857Z,71.79
2022-12-11T04:57:57.680Z,71.87
2022-12-11T05:00:27.435Z,71.43
2022-12-11T05:02:56.136Z,71.83
2022-12-11T05:05:24.828Z,71.62
2022-12-11T05:07:54.920Z,72.28
2022-12-11T05:10:23.610Z,73.82
2022-12-11T05:12:52.604Z,74.13
2022-12-11T05:15:21.201Z,74.55
2022-12-11T05:17:49.870Z,75.53
2022-12-11T05:20:18.578Z,76.75
2022-12-11T05:22:47.222Z,77.91
2022-12-11T05:25:17.244Z,85.73
2022-12-11T05:27:45.883Z,92.15
2022-12-11T05:30:15.049Z,94.87
2022-12-11T05:32:43.695Z,100.00
2022-12-11T05:35:12.632Z,100.00
2022-12-11T05:37:41.607Z,100.00
2022-12-11T05:40:13.097Z,100.00
2022-12-11T05:42:43.302Z,100.00
2022-12-11T05:45:13.080Z,100.00
2022-12-11T05:47:41.983Z,100.00
2022-12-11T05:50:17.891Z,100.00
2022-12-11T05:52:47.630Z,100.00
2022-12-11T05:55:18.384Z,100.00
2022-12-11T05:57:48.508Z,100.00
2022-12-11T06:00:17.224Z,100.00
2022-12-11T06:02:46.283Z,100.00
2022-12-11T06:05:14.982Z,100.00
2022-12-11T06:07:43.763Z,100.00
2022-12-11T06:10:12.487Z,100.00
2022-12-11T06:12:41.540Z,100.00
2022-12-11T06:15:12.135Z,100.00
2022-12-11T06:17:40.953Z,100.00
2022-12-11T06:20:10.580Z,100.00
2022-12-11T06:22:39.248Z,100.00
2022-12-11T06:25:08.684Z,100.00
2022-12-11T06:27:37.490Z,100.00
2022-12-11T06:30:06.678Z,100.00
2022-12-11T06:32:37.136Z,100.00
2022-12-11T06:35:06.463Z,100.00
2022-12-11T06:37:36.191Z,100.00
2022-12-11T06:40:05.072Z,100.00
2022-12-11T06:42:33.699Z,100.00
2022-12-11T06:45:02.736Z,100.00
2022-12-11T06:47:31.656Z,100.00
2022-12-11T06:50:02.736Z,100.00
2022-12-11T06:52:31.455Z,100.00
2022-12-11T06:55:00.430Z,100.00
2022-12-11T06:57:29.092Z,100.00
2022-12-11T06:59:57.807Z,100.00
2022-12-11T07:02:26.799Z,100.00
2022-12-11T07:04:55.583Z,100.00
2022-12-11T07:07:25.621Z,100.00
2022-12-11T07:09:54.584Z,100.00
2022-12-11T07:12:23.280Z,100.00
2022-12-11T07:14:51.980Z,100.00
2022-12-11T07:17:20.920Z,100.00
2022-12-11T07:19:49.777Z,100.00
2022-12-11T07:22:18.419Z,100.00
2022-12-11T07:24:48.797Z,100.00
2022-12-11T07:27:17.505Z,100.00
2022-12-11T07:29:46.431Z,100.00
2022-12-11T07:32:15.082Z,100.00
2022-12-11T07:34:48.591Z,100.00
2022-12-11T07:37:20.242Z,100.00
2022-12-11T07:39:50.469Z,100.00
2022-12-11T07:42:19.207Z,100.00
2022-12-11T07:44:47.896Z,100.00
2022-12-11T07:47:29.004Z,100.00
2022-12-11T07:49:57.653Z,100.00
2022-12-11T07:52:26.670Z,100.00
2022-12-11T07:54:57.302Z,100.00
2022-12-11T07:57:26.212Z,100.00
2022-12-11T07:59:54.892Z,100.00
2022-12-11T08:02:37.045Z,100.00
2022-12-11T08:05:07.113Z,100.00
2022-12-11T08:07:36.871Z,100.00
2022-12-11T08:10:07.776Z,100.00
2022-12-11T08:12:36.543Z,100.00
2022-12-11T08:15:06.802Z,100.00
2022-12-11T08:17:39.984Z,100.00
2022-12-11T08:20:10.240Z,100.00
2022-12-11T08:22:38.886Z,100.00
2022-12-11T08:25:10.619Z,100.00
2022-12-11T08:27:39.454Z,100.00
2022-12-11T08:30:10.447Z,100.00
2022-12-11T08:32:39.162Z,100.00
2022-12-11T08:35:10.180Z,100.00
2022-12-11T08:37:39.179Z,100.00
2022-12-11T08:40:11.114Z,100.00
2022-12-11T08:42:39.874Z,100.00
2022-12-11T08:45:09.901Z,100.00
2022-12-11T08:47:38.859Z,100.00
2022-12-11T08:50:08.141Z,100.00
2022-12-11T08:52:36.961Z,100.00
2022-12-11T08:55:06.035Z,100.00
2022-12-11T08:57:36.172Z,100.00
2022-12-11T09:00:05.142Z,100.00
2022-12-11T09:02:52.275Z,100.00
2022-12-11T09:05:20.924Z,100.00
2022-12-11T09:07:49.727Z,100.00
2022-12-11T09:10:18.642Z,100.00
2022-12-11T09:12:48.794Z,100.00
2022-12-11T09:15:18.186Z,100.00
2022-12-11T09:17:46.851Z,100.00
2022-12-11T09:20:15.766Z,100.00
2022-12-11T09:22:44.739Z,100.00
2022-12-11T09:25:13.755Z,100.00
2022-12-11T09:28:02.278Z,100.00
2022-12-11T09:30:31.290Z,100.00
2022-12-11T09:33:00.302Z,100.00
2022-12-11T09:35:29.269Z,100.00
2022-12-11T09:37:57.869Z,100.00
2022-12-11T09:40:26.577Z,100.00
2022-12-11T09:42:56.147Z,100.00
2022-12-11T09:45:26.636Z,100.00
2022-12-11T09:47:56.373Z,100.00
2022-12-11T09:50:26.825Z,100.00
2022-12-11T09:53:01.488Z,100.00
2022-12-11T09:55:33.663Z,100.00
2022-12-11T09:58:04.443Z,100.00
2022-12-11T10:00:38.007Z,100.00
2022-12-11T10:03:20.204Z,100.00
2022-12-11T10:05:51.605Z,100.00
2022-12-11T10:08:28.249Z,100.00
2022-12-11T10:10:59.294Z,100.00
2022-12-11T10:13:31.277Z,100.00
2022-12-11T10:16:02.628Z,100.00
2022-12-11T10:18:31.380Z,100.00
2022-12-11T10:21:00.364Z,100.00
2022-12-11T10:23:36.201Z,100.00
2022-12-11T10:26:07.678Z,100.00
2022-12-11T10:28:38.056Z,100.00
2022-12-11T10:31:13.897Z,100.00
2022-12-11T10:33:49.891Z,100.00
2022-12-11T10:36:21.150Z,100.00
2022-12-11T10:38:50.410Z,100.00
2022-12-11T10:41:21.281Z,100.00
2022-12-11T10:43:51.212Z,100.00
2022-12-11T10:46:24.444Z,100.00
2022-12-11T10:48:54.845Z,100.00
2022-12-11T10:51:24.652Z,100.00
2022-12-11T10:53:54.981Z,100.00
2022-12-11T10:56:28.005Z,100.00
2022-12-11T10:58:56.795Z,100.00
2022-12-11T11:01:30.389Z,100.00
2022-12-11T11:04:00.267Z,100.00
2022-12-11T11:06:29.290Z,100.00
2022-12-11T11:08:59.256Z,100.00
2022-12-11T11:11:29.860Z,100.00
2022-12-11T11:14:08.046Z,100.00
2022-12-11T11:16:39.241Z,100.00
2022-12-11T11:19:08.675Z,100.00
2022-12-11T11:21:42.048Z,100.00
2022-12-11T11:24:28.192Z,100.00
2022-12-11T11:27:13.169Z,100.00
2022-12-11T11:29:42.812Z,100.00
2022-12-11T11:32:22.273Z,100.00
2022-12-11T11:34:50.953Z,100.00
2022-12-11T11:37:26.721Z,100.00
2022-12-11T11:39:57.241Z,100.00
2022-12-11T11:42:45.828Z,100.00
2022-12-11T11:45:17.994Z,100.00
2022-12-11T11:47:53.063Z,100.00
2022-12-11T11:50:23.889Z,100.00
2022-12-11T11:52:55.289Z,100.00
2022-12-11T11:55:30.775Z,100.00
2022-12-11T11:58:02.568Z,100.00
2022-12-11T12:00:34.133Z,100.00
2022-12-11T12:03:08.294Z,100.00
2022-12-11T12:05:39.912Z,100.00
2022-12-11T12:08:15.072Z,100.00
2022-12-11T12:10:47.545Z,100.00
2022-12-11T12:13:47.935Z,100.00
2022-12-11T12:16:43.808Z,100.00
2022-12-11T12:19:05.097Z,100.00
2022-12-11T12:21:36.663Z,100.00
2022-12-11T12:24:12.118Z,100.00
2022-12-11T12:26:42.345Z,100.00
2022-12-11T12:29:16.594Z,100.00
2022-12-11T12:31:55.855Z,100.00
2022-12-11T12:34:33.573Z,100.00
2022-12-11T12:37:17.583Z,100.00
2022-12-11T12:39:51.504Z,100.00
2022-12-11T12:42:25.784Z,100.00
2022-12-11T12:44:59.146Z,100.00
2022-12-11T12:47:28.782Z,100.00
2022-12-11T12:50:00.959Z,100.00
2022-12-11T12:52:33.080Z,100.00
2022-12-11T12:55:17.147Z,100.00
2022-12-11T12:58:05.505Z,100.00
2022-12-11T13:00:35.861Z,100.00
2022-12-11T13:03:15.004Z,100.00
2022-12-11T13:05:46.311Z,100.00
2022-12-11T13:08:15.410Z,100.00
2022-12-11T13:10:44.588Z,100.00
2022-12-11T13:13:34.712Z,100.00
2022-12-11T13:16:10.811Z,100.00
2022-12-11T13:18:40.335Z,100.00
2022-12-11T13:24:17.357Z,100.00
2022-12-11T13:26:46.807Z,100.00
2022-12-11T13:29:32.771Z,100.00
2022-12-11T13:32:03.979Z,100.00
2022-12-11T13:34:34.399Z,100.00
2022-12-11T13:37:05.622Z,100.00
2022-12-11T13:39:35.705Z,100.00
2022-12-11T13:42:11.964Z,100.00
2022-12-11T13:44:45.087Z,100.00
2022-12-11T13:47:16.260Z,100.00
2022-12-11T13:49:45.928Z,100.00
2022-12-11T13:52:19.856Z,100.00
2022-12-11T13:54:49.732Z,100.00
2022-12-11T13:57:19.181Z,100.00
2022-12-11T13:59:58.808Z,100.00
2022-12-11T14:02:28.905Z,100.00
2022-12-11T14:04:59.056Z,100.00
2022-12-11T14:07:31.130Z,100.00
2022-12-11T14:10:03.174Z,100.00
2022-12-11T14:12:32.835Z,100.00
2022-12-11T14:15:02.460Z,100.00
2022-12-11T14:17:32.231Z,100.00
2022-12-11T14:20:02.549Z,100.00
2022-12-11T14:22:33.174Z,100.00
2022-12-11T14:25:09.620Z,100.00
2022-12-11T14:27:49.066Z,100.00
2022-12-11T14:30:24.580Z,100.00
2022-12-11T14:32:53.942Z,100.00
2022-12-11T14:35:27.227Z,100.00
2022-12-11T14:37:58.088Z,100.00
2022-12-11T14:43:16.514Z,100.00
2022-12-11T14:45:46.916Z,100.00
2022-12-11T14:48:18.991Z,100.00
2022-12-11T14:50:50.587Z,100.00
2022-12-11T14:53:23.161Z,100.00
2022-12-11T14:55:53.254Z,100.00
2022-12-11T14:58:23.617Z,100.00
2022-12-11T15:00:59.697Z,100.00
2022-12-11T15:03:34.056Z,100.00
2022-12-11T15:06:03.381Z,100.00
2022-12-11T15:08:34.794Z,100.00
2022-12-11T15:11:06.312Z,100.00
2022-12-11T15:13:36.175Z,100.00
2022-12-11T15:16:06.060Z,100.00
2022-12-11T15:18:36.181Z,100.00
2022-12-11T15:21:07.424Z,100.00
2022-12-11T15:23:53.693Z,100.00
2022-12-11T15:26:41.869Z,100.00
2022-12-11T15:29:32.378Z,100.00
2022-12-11T15:32:02.282Z,100.00
2022-12-11T15:34:35.827Z,100.00
2022-12-11T15:37:04.965Z,100.00
2022-12-11T15:39:48.324Z,100.00
2022-12-11T15:42:18.676Z,100.00
2022-12-11T15:44:47.890Z,100.00
2022-12-11T15:47:17.383Z,100.00
2022-12-11T15:50:06.455Z,100.00
2022-12-11T15:52:35.865Z,100.00
2022-12-11T15:55:06.736Z,100.00
2022-12-11T15:57:35.694Z,100.00
2022-12-11T16:00:06.761Z,100.00
2022-12-11T16:02:36.004Z,100.00
2022-12-11T16:07:52.589Z,100.00
2022-12-11T16:10:23.823Z,100.00
2022-12-11T16:12:53.415Z,100.00
2022-12-11T16:15:24.088Z,100.00
2022-12-11T16:18:02.774Z,100.00
2022-12-11T16:20:33.001Z,100.00
2022-12-11T16:23:02.488Z,100.00
2022-12-11T16:25:33.789Z,100.00
2022-12-11T16:28:03.147Z,100.00
2022-12-11T16:30:32.461Z,100.00
2022-12-11T16:33:04.794Z,100.00
2022-12-11T16:35:37.712Z,100.00
2022-12-11T16:38:08.388Z,100.00
2022-12-11T16:40:39.445Z,100.00
2022-12-11T16:43:27.110Z,100.00
2022-12-11T16:45:57.747Z,100.00
2022-12-11T16:48:45.474Z,100.00
2022-12-11T16:51:14.606Z,100.00
2022-12-11T16:53:43.970Z,100.00
2022-12-11T16:56:15.119Z,100.00
2022-12-11T16:58:44.849Z,100.00
2022-12-11T17:01:14.975Z,100.00
2022-12-11T17:03:44.491Z,100.00
2022-12-11T17:06:14.751Z,100.00
2022-12-11T17:08:45.496Z,100.00
2022-12-11T17:11:17.879Z,100.00
2022-12-11T17:13:47.765Z,100.00
2022-12-11T17:16:18.457Z,100.00
2022-12-11T17:18:48.462Z,100.00
2022-12-11T17:21:19.347Z,100.00
2022-12-11T17:23:49.654Z,100.00
2022-12-11T17:26:21.742Z,100.00
2022-12-11T17:28:51.747Z,100.00
2022-12-11T17:31:27.059Z,100.00
2022-12-11T17:34:06.851Z,100.00
2022-12-11T17:36:36.720Z,100.00
2022-12-11T17:39:07.198Z,100.00
2022-12-11T17:41:39.492Z,100.00
2022-12-11T17:44:09.430Z,100.00
2022-12-11T17:46:40.308Z,100.00
2022-12-11T17:49:12.951Z,100.00
2022-12-11T17:51:42.902Z,100.00
2022-12-11T17:54:13.192Z,100.00
2022-12-11T17:56:44.948Z,100.00
2022-12-11T17:59:15.107Z,100.00
2022-12-11T18:01:47.489Z,100.00
2022-12-11T18:04:17.718Z,100.00
2022-12-11T18:06:48.480Z,100.00
2022-12-11T18:09:18.560Z,100.00
2022-12-11T18:11:49.941Z,100.00
2022-12-11T18:14:20.138Z,100.00
2022-12-11T18:16:50.568Z,100.00
2022-12-11T18:19:20.346Z,100.00
2022-12-11T18:21:50.811Z,100.00
2022-12-11T18:24:26.774Z,100.00
2022-12-11T18:27:10.782Z,100.00
2022-12-11T18:29:40.862Z,100.00
2022-12-11T18:32:10.690Z,100.00
2022-12-11T18:34:40.736Z,100.00
2022-12-11T18:37:31.449Z,100.00
2022-12-11T18:40:03.151Z,100.00
2022-12-11T18:42:37.650Z,100.00
2022-12-11T18:45:08.294Z,100.00
2022-12-11T18:47:38.629Z,100.00
2022-12-11T18:50:14.323Z,100.00
2022-12-11T18:52:44.211Z,100.00
2022-12-11T18:55:14.413Z,100.00
2022-12-11T18:57:48.164Z,100.00
2022-12-11T19:00:19.556Z,100.00
2022-12-11T19:02:50.617Z,100.00
2022-12-11T19:05:20.669Z,100.00
2022-12-11T19:07:50.879Z,100.00
2022-12-11T19:10:21.079Z,100.00
2022-12-11T19:12:52.964Z,100.00
2022-12-11T19:15:25.111Z,100.00
2022-12-11T19:17:55.157Z,100.00
2022-12-11T19:20:48.178Z,100.00
2022-12-11T19:23:17.570Z,100.00
2022-12-11T19:25:57.486Z,100.00
2022-12-11T19:28:30.272Z,100.00
2022-12-11T19:31:04.359Z,100.00
2022-12-11T19:33:36.306Z,100.00
2022-12-11T19:36:07.931Z,100.00
2022-12-11T19:38:38.803Z,100.00
2022-12-11T19:41:09.411Z,100.00
2022-12-11T19:43:43.584Z,100.00
2022-12-11T19:46:13.872Z,100.00
2022-12-11T19:48:45.359Z,100.00
2022-12-11T19:51:17.899Z,100.00
2022-12-11T19:53:48.837Z,100.00
2022-12-11T19:56:35.435Z,100.00
2022-12-11T19:59:07.429Z,100.00
2022-12-11T20:01:45.218Z,100.00
2022-12-11T20:04:15.739Z,100.00
2022-12-11T20:06:49.636Z,100.00
2022-12-11T20:09:21.607Z,100.00
2022-12-11T20:11:54.255Z,100.00
2022-12-11T20:14:26.674Z,100.00
2022-12-11T20:17:14.171Z,100.00
2022-12-11T20:19:45.449Z,100.00
2022-12-11T20:22:15.889Z,100.00
2022-12-11T20:24:47.181Z,100.00
2022-12-11T20:27:17.392Z,100.00
2022-12-11T20:29:48.857Z,100.00
2022-12-11T20:32:19.059Z,100.00
2022-12-11T20:34:49.507Z,100.00
2022-12-11T20:37:20.223Z,100.00
2022-12-11T20:39:49.446Z,100.00
2022-12-11T20:42:21.675Z,100.00
2022-12-11T20:44:53.867Z,100.00
2022-12-11T20:47:24.236Z,100.00
2022-12-11T20:49:54.487Z,100.00
2022-12-11T20:52:24.122Z,100.00
2022-12-11T20:54:54.140Z,100.00
2022-12-11T20:57:23.837Z,100.00
2022-12-11T20:59:54.932Z,100.00
2022-12-11T21:02:45.155Z,100.00
2022-12-11T21:05:15.055Z,100.00
2022-12-11T21:07:45.185Z,100.00
2022-12-11T21:10:15.845Z,100.00
2022-12-11T21:12:45.598Z,100.00
2022-12-11T21:15:16.852Z,100.00
2022-12-11T21:17:46.462Z,100.00
2022-12-11T21:20:17.275Z,100.00
2022-12-11T21:22:47.107Z,100.00
2022-12-11T21:25:16.159Z,100.00
2022-12-11T21:27:45.926Z,100.00
2022-12-11T21:30:17.074Z,100.00
2022-12-11T21:32:48.010Z,100.00
2022-12-11T21:35:18.162Z,100.00
2022-12-11T21:37:47.710Z,100.00
2022-12-11T21:40:16.824Z,100.00
2022-12-11T21:42:50.669Z,100.00
2022-12-11T21:48:09.669Z,100.00
2022-12-11T21:50:38.421Z,100.00
2022-12-11T21:53:07.242Z,100.00
2022-12-11T21:55:36.324Z,100.00
2022-12-11T21:58:05.212Z,100.00
2022-12-11T22:00:39.615Z,100.00
2022-12-11T22:03:08.357Z,100.00
2022-12-11T22:05:37.091Z,100.00
2022-12-11T22:08:07.367Z,100.00
2022-12-11T22:10:36.175Z,100.00
2022-12-11T22:13:05.284Z,100.00
2022-12-11T22:15:35.815Z,100.00
2022-12-11T22:18:04.926Z,100.00
2022-12-11T22:20:33.642Z,100.00
2022-12-11T22:23:02.318Z,100.00
2022-12-11T22:25:31.109Z,100.00
2022-12-11T22:28:00.490Z,100.00
2022-12-11T22:30:29.359Z,100.00
2022-12-11T22:32:59.655Z,100.00
2022-12-11T22:35:28.351Z,100.00
2022-12-11T22:37:57.109Z,100.00
2022-12-11T22:40:27.030Z,100.00
2022-12-11T22:42:55.745Z,100.00
2022-12-11T22:45:24.479Z,100.00
2022-12-11T22:47:53.431Z,100.00
2022-12-11T22:50:23.890Z,100.00
2022-12-11T22:52:53.497Z,100.00
2022-12-11T22:55:22.509Z,100.00
2022-12-11T22:57:51.234Z,100.00
2022-12-11T23:00:20.381Z,100.00
2022-12-11T23:02:49.261Z,100.00
2022-12-11T23:05:18.369Z,100.00
2022-12-11T23:07:48.669Z,100.00
2022-12-11T23:10:17.392Z,100.00
2022-12-11T23:12:46.447Z,100.00
2022-12-11T23:15:15.285Z,100.00
2022-12-11T23:17:45.076Z,100.00
2022-12-11T23:20:14.341Z,100.00
2022-12-11T23:22:43.107Z,100.00
2022-12-11T23:25:17.760Z,100.00
2022-12-11T23:27:47.347Z,100.00
2022-12-11T23:30:16.263Z,100.00
2022-12-11T23:32:46.991Z,100.00
2022-12-11T23:35:18.867Z,100.00
2022-12-11T23:37:47.695Z,100.00
2022-12-11T23:40:17.919Z,100.00
2022-12-11T23:42:46.591Z,100.00
2022-12-11T23:45:15.526Z,100.00
2022-12-11T23:47:44.788Z,100.00
2022-12-11T23:50:13.609Z,100.00
2022-12-11T23:52:42.344Z,100.00
2022-12-11T23:55:11.723Z,100.00
2022-12-11T23:57:42.333Z,100.00
